CheckWX is a tool to help pilots better visualize weather data.  It is not intended as a substitute for an official pre-flight weather briefing.

22:41:01 UTC

OMDB METAR
Dubai International Airport
Dubai, United Arab Emirates
Current

41 mins ago

OMDB 152200Z 20007KT CAVOK 33/26 Q0994 NOSIG
Observed
Jul-15 @ 22:00 UTC
Wind
  • 200° at 7 KTS
Visibility
10,000+ meters
Flight Rules
VFR
Cloud Levels
  • Clear skies
Temperature
33°C / 91°F
Dewpoint
26°C / 79°F
Heat Index
42°C / 107°F
Humidity
67%
Altimeter
29.35" Hg
Pressure
993.92 hPa
Previous

2 hours ago

OMDB 152100Z 20008KT CAVOK 33/27 Q0995 NOSIG
Observed
Jul-15 @ 21:00 UTC
Wind
  • 200° at 8 KTS
Visibility
10,000+ meters
Flight Rules
VFR
Cloud Levels
  • Clear skies
Temperature
33°C / 91°F
Dewpoint
27°C / 81°F
Heat Index
43°C / 110°F
Humidity
71%
Altimeter
29.38" Hg
Pressure
994.92 hPa
Previous

3 hours ago

OMDB 152000Z 24007KT 190V270 CAVOK 34/27 Q0995 NOSIG
Observed
Jul-15 @ 20:00 UTC
Wind
  • 240° at 7 KTS
Visibility
10,000+ meters
Flight Rules
VFR
Cloud Levels
  • Clear skies
Temperature
34°C / 93°F
Dewpoint
27°C / 81°F
Heat Index
45°C / 113°F
Humidity
67%
Altimeter
29.38" Hg
Pressure
994.92 hPa